createdAt,value
2023-04-29T00:01:49.821Z,10.10
2023-04-29T00:04:17.227Z,9.93
2023-04-29T00:06:44.199Z,9.45
2023-04-29T00:09:11.070Z,11.23
2023-04-29T00:11:37.848Z,10.45
2023-04-29T00:14:04.651Z,11.10
2023-04-29T00:16:31.532Z,11.52
2023-04-29T00:18:59.730Z,11.73
2023-04-29T00:21:27.894Z,11.40
2023-04-29T00:23:54.881Z,12.30
2023-04-29T00:26:21.977Z,12.43
2023-04-29T00:28:48.797Z,11.27
2023-04-29T00:31:15.726Z,12.98
2023-04-29T00:33:42.805Z,14.73
2023-04-29T00:36:09.714Z,12.30
2023-04-29T00:38:36.705Z,12.55
2023-04-29T00:41:03.881Z,13.00
2023-04-29T00:43:30.864Z,13.73
2023-04-29T00:45:58.299Z,14.13
2023-04-29T00:48:25.158Z,15.25
2023-04-29T00:50:52.098Z,15.05
2023-04-29T00:53:18.943Z,13.57
2023-04-29T00:55:48.219Z,15.13
2023-04-29T00:58:15.110Z,16.23
2023-04-29T01:00:44.205Z,15.50
2023-04-29T01:03:11.622Z,16.23
2023-04-29T01:05:39.089Z,16.15
2023-04-29T01:08:50.107Z,16.63
2023-04-29T01:11:23.982Z,15.70
2023-04-29T01:13:55.671Z,16.10
2023-04-29T01:16:41.252Z,16.70
2023-04-29T01:19:40.460Z,16.75
2023-04-29T01:22:07.538Z,15.43
2023-04-29T01:24:34.400Z,14.93
2023-04-29T01:27:31.971Z,14.18
2023-04-29T01:30:22.864Z,15.32
2023-04-29T01:33:04.898Z,14.35
2023-04-29T01:36:06.039Z,15.45
2023-04-29T01:39:04.965Z,14.43
2023-04-29T01:41:46.137Z,14.23
2023-04-29T01:44:18.831Z,13.32
2023-04-29T01:46:52.608Z,11.27
2023-04-29T01:49:25.675Z,12.07
2023-04-29T01:51:52.573Z,10.85
2023-04-29T01:54:19.473Z,10.98
2023-04-29T01:56:46.404Z,10.52
2023-04-29T01:59:13.209Z,9.85
2023-04-29T02:01:40.092Z,10.68
2023-04-29T02:04:07.013Z,11.15
2023-04-29T02:06:35.352Z,10.50
2023-04-29T02:09:02.199Z,9.52
2023-04-29T02:11:29.057Z,10.80
2023-04-29T02:13:56.907Z,10.15
2023-04-29T02:16:24.224Z,10.10
2023-04-29T02:18:51.237Z,11.10
2023-04-29T02:21:18.354Z,10.05
2023-04-29T02:23:45.537Z,9.95
2023-04-29T02:26:12.409Z,10.32
2023-04-29T02:28:39.304Z,10.23
2023-04-29T02:31:06.267Z,10.43
2023-04-29T02:33:33.891Z,10.38
2023-04-29T02:36:00.684Z,11.30
2023-04-29T02:38:27.552Z,10.60
2023-04-29T02:40:54.389Z,12.32
2023-04-29T02:43:22.428Z,11.50
2023-04-29T02:45:49.708Z,12.68
2023-04-29T02:48:17.611Z,12.77
2023-04-29T02:50:45.035Z,13.32
2023-04-29T02:53:11.880Z,12.05
2023-04-29T02:55:38.792Z,11.88
2023-04-29T02:58:05.903Z,11.32
2023-04-29T03:00:33.053Z,12.60
2023-04-29T03:03:00.021Z,12.00
2023-04-29T03:05:27.040Z,13.20
2023-04-29T03:07:53.875Z,12.40
2023-04-29T03:10:20.873Z,12.57
2023-04-29T03:12:48.013Z,15.13
2023-04-29T03:15:15.884Z,14.70
2023-04-29T03:17:42.798Z,15.02
2023-04-29T03:20:11.282Z,15.82
2023-04-29T03:22:38.141Z,15.88
2023-04-29T03:25:06.134Z,16.10
2023-04-29T03:27:33.314Z,16.48
2023-04-29T03:30:00.372Z,16.60
2023-04-29T03:32:27.187Z,17.42
2023-04-29T03:34:55.266Z,17.23
2023-04-29T03:37:22.098Z,17.65
2023-04-29T03:39:49.709Z,17.63
2023-04-29T03:42:16.567Z,17.10
2023-04-29T03:44:43.614Z,17.13
2023-04-29T03:47:10.459Z,16.90
2023-04-29T03:49:38.702Z,17.25
2023-04-29T03:52:06.591Z,18.42
2023-04-29T03:54:33.425Z,19.25
2023-04-29T03:57:00.558Z,21.17
2023-04-29T03:59:28.506Z,19.52
2023-04-29T04:01:55.335Z,20.98
2023-04-29T04:04:24.210Z,20.83
2023-04-29T04:06:52.069Z,22.25
2023-04-29T04:09:19.151Z,21.55
2023-04-29T04:11:47.065Z,22.25
2023-04-29T04:14:14.186Z,23.20
2023-04-29T04:16:41.121Z,24.70
2023-04-29T04:19:08.135Z,25.90
2023-04-29T04:21:35.720Z,25.67
2023-04-29T04:24:02.775Z,27.00
2023-04-29T04:26:29.642Z,28.23
2023-04-29T04:28:57.090Z,31.63
2023-04-29T04:31:25.406Z,30.67
2023-04-29T04:33:52.635Z,30.45
2023-04-29T04:36:19.484Z,30.33
2023-04-29T04:38:46.502Z,33.08
2023-04-29T04:41:16.309Z,33.17
2023-04-29T04:43:45.271Z,31.58
2023-04-29T04:46:13.565Z,32.90
2023-04-29T04:48:40.690Z,33.00
2023-04-29T04:51:14.540Z,34.33
2023-04-29T04:53:41.509Z,33.70
2023-04-29T04:56:08.670Z,36.25
2023-04-29T04:58:35.425Z,37.65
2023-04-29T05:01:02.627Z,37.60
2023-04-29T05:03:29.750Z,36.67
2023-04-29T05:05:57.854Z,38.10
2023-04-29T05:08:25.648Z,40.35
2023-04-29T05:10:54.328Z,41.05
2023-04-29T05:13:22.949Z,41.33
2023-04-29T05:15:49.790Z,41.92
2023-04-29T05:18:16.669Z,41.35
2023-04-29T05:20:43.854Z,43.22
2023-04-29T05:23:10.691Z,40.63
2023-04-29T05:25:37.609Z,41.97
2023-04-29T05:28:07.379Z,42.78
2023-04-29T05:30:34.565Z,40.80
2023-04-29T05:33:01.841Z,42.42
2023-04-29T05:35:28.921Z,41.50
2023-04-29T05:37:55.907Z,41.15
2023-04-29T05:40:23.871Z,41.60
2023-04-29T05:42:51.431Z,38.78
2023-04-29T05:45:22.047Z,37.13
2023-04-29T05:47:49.229Z,33.90
2023-04-29T05:50:16.082Z,28.13
2023-04-29T05:52:43.110Z,27.75
2023-04-29T05:55:10.245Z,24.15
2023-04-29T05:57:37.118Z,23.80
2023-04-29T06:00:07.344Z,23.05
2023-04-29T06:02:37.413Z,24.45
2023-04-29T06:05:08.453Z,22.90
2023-04-29T06:07:36.552Z,22.02
2023-04-29T06:10:03.884Z,23.73
2023-04-29T06:12:33.432Z,22.25
2023-04-29T06:15:01.940Z,23.45
2023-04-29T06:17:29.703Z,22.38
2023-04-29T06:19:56.644Z,23.05
2023-04-29T06:22:24.019Z,24.20
2023-04-29T06:24:51.908Z,21.67
2023-04-29T06:27:20.448Z,22.00
2023-04-29T06:29:47.587Z,22.20
2023-04-29T06:32:14.690Z,22.52
2023-04-29T06:34:42.315Z,21.90
2023-04-29T06:37:09.790Z,21.60
2023-04-29T06:39:40.406Z,20.02
2023-04-29T06:42:08.478Z,19.33
2023-04-29T06:44:35.342Z,19.83
2023-04-29T06:47:02.903Z,21.02
2023-04-29T06:49:29.843Z,21.20
2023-04-29T06:51:56.867Z,20.23
2023-04-29T06:54:23.656Z,18.45
2023-04-29T06:56:50.684Z,18.52
2023-04-29T06:59:17.788Z,18.88
2023-04-29T07:01:47.049Z,17.27
2023-04-29T07:04:15.602Z,17.63
2023-04-29T07:06:47.419Z,18.38
2023-04-29T07:09:14.853Z,16.80
2023-04-29T07:11:42.523Z,17.48
2023-04-29T07:14:09.875Z,16.40
2023-04-29T07:16:36.705Z,17.00
2023-04-29T07:19:04.848Z,16.70
2023-04-29T07:21:31.781Z,16.67
2023-04-29T07:24:01.314Z,16.05
2023-04-29T07:26:28.153Z,15.63
2023-04-29T07:28:59.645Z,14.45
2023-04-29T07:31:26.724Z,13.82
2023-04-29T07:33:53.756Z,14.02
2023-04-29T07:36:21.192Z,14.07
2023-04-29T07:38:47.978Z,12.75
2023-04-29T07:41:14.817Z,13.30
2023-04-29T07:43:42.539Z,12.35
2023-04-29T07:46:10.979Z,11.55
2023-04-29T07:48:39.717Z,12.23
2023-04-29T07:51:07.114Z,10.80
2023-04-29T07:53:34.077Z,11.20
2023-04-29T07:56:06.651Z,12.13
2023-04-29T07:58:34.706Z,11.40
2023-04-29T08:01:09.945Z,12.43
2023-04-29T08:03:39.882Z,12.88
2023-04-29T08:06:08.142Z,11.60
2023-04-29T08:08:35.270Z,12.15
2023-04-29T08:11:02.474Z,13.95
2023-04-29T08:13:29.313Z,14.07
2023-04-29T08:15:56.595Z,12.48
2023-04-29T08:18:23.535Z,12.38
2023-04-29T08:20:50.513Z,12.13
2023-04-29T08:23:17.580Z,10.85
2023-04-29T08:25:44.657Z,10.88
2023-04-29T08:28:13.289Z,12.18
2023-04-29T08:30:44.257Z,12.55
2023-04-29T08:33:13.200Z,13.27
2023-04-29T08:35:42.203Z,13.25
2023-04-29T08:38:10.289Z,14.93
2023-04-29T08:40:47.977Z,14.82
2023-04-29T08:43:15.780Z,15.43
2023-04-29T08:45:43.819Z,16.88
2023-04-29T08:48:14.054Z,15.80
2023-04-29T08:50:42.283Z,17.42
2023-04-29T08:53:10.210Z,17.77
2023-04-29T08:55:43.397Z,17.38
2023-04-29T08:58:12.356Z,17.65
2023-04-29T09:00:44.401Z,18.50
2023-04-29T09:03:21.104Z,18.33
2023-04-29T09:05:53.109Z,18.40
2023-04-29T09:08:24.832Z,18.05
2023-04-29T09:10:54.307Z,18.15
2023-04-29T09:13:34.606Z,17.77
2023-04-29T09:16:04.022Z,18.52
2023-04-29T09:18:52.063Z,19.27
2023-04-29T09:21:26.127Z,18.88
2023-04-29T09:23:55.516Z,17.55
2023-04-29T09:26:28.094Z,18.85
2023-04-29T09:29:14.283Z,17.63
2023-04-29T09:31:45.035Z,16.98
2023-04-29T09:34:13.249Z,16.90
2023-04-29T09:36:59.052Z,15.88
2023-04-29T09:39:28.776Z,16.65
2023-04-29T09:41:57.504Z,15.77
2023-04-29T09:44:32.938Z,14.93
2023-04-29T09:47:03.386Z,15.05
2023-04-29T09:49:41.822Z,14.88
2023-04-29T09:52:11.824Z,14.23
2023-04-29T09:54:40.969Z,13.80
2023-04-29T09:57:09.152Z,14.13
2023-04-29T09:59:39.913Z,14.32
2023-04-29T10:02:27.607Z,14.90
2023-04-29T10:05:02.404Z,14.43
2023-04-29T10:07:29.825Z,13.90
2023-04-29T10:09:59.197Z,13.40
2023-04-29T10:12:30.348Z,13.23
2023-04-29T10:15:23.371Z,15.45
2023-04-29T10:17:55.301Z,16.00
2023-04-29T10:20:27.489Z,16.52
2023-04-29T10:22:57.270Z,15.95
2023-04-29T10:25:26.367Z,16.70
2023-04-29T10:28:00.663Z,16.77
2023-04-29T10:30:27.735Z,16.35
2023-04-29T10:33:01.095Z,15.02
2023-04-29T10:35:29.294Z,16.33
2023-04-29T10:38:00.784Z,15.80
2023-04-29T10:40:37.498Z,16.02
2023-04-29T10:43:04.853Z,17.13
2023-04-29T10:45:36.340Z,17.27
2023-04-29T10:48:07.420Z,16.85
2023-04-29T10:50:57.643Z,16.95
2023-04-29T10:53:24.542Z,16.27
2023-04-29T10:56:00.371Z,17.27
2023-04-29T10:58:47.665Z,17.23
2023-04-29T11:01:41.087Z,16.33
2023-04-29T11:04:10.912Z,15.25
2023-04-29T11:06:37.902Z,15.20
2023-04-29T11:12:06.360Z,14.02
2023-04-29T11:14:45.357Z,14.25
2023-04-29T11:17:18.167Z,15.00
2023-04-29T11:19:53.759Z,12.75
2023-04-29T11:22:24.302Z,14.50
2023-04-29T11:25:05.429Z,15.65
2023-04-29T11:27:33.557Z,15.55
2023-04-29T11:30:01.869Z,15.32
2023-04-29T11:32:33.087Z,16.77
2023-04-29T11:35:19.816Z,16.90
2023-04-29T11:37:47.678Z,16.80
2023-04-29T11:40:17.339Z,15.82
2023-04-29T11:42:50.265Z,16.98
2023-04-29T11:45:20.499Z,16.33
2023-04-29T11:47:49.474Z,16.20
2023-04-29T11:50:19.313Z,17.35
2023-04-29T11:52:50.276Z,18.05
2023-04-29T11:55:19.639Z,17.65
2023-04-29T11:57:49.889Z,17.35
2023-04-29T12:00:17.164Z,20.65
2023-04-29T12:02:48.537Z,19.65
2023-04-29T12:05:17.817Z,19.80
2023-04-29T12:07:45.105Z,21.42
2023-04-29T12:10:13.832Z,20.77
2023-04-29T12:12:42.552Z,23.00
2023-04-29T12:15:10.579Z,24.98
2023-04-29T12:17:38.402Z,25.27
2023-04-29T12:20:06.842Z,27.70
2023-04-29T12:22:35.946Z,28.10
2023-04-29T12:25:08.085Z,28.27
2023-04-29T12:27:37.081Z,25.33
2023-04-29T12:30:09.008Z,26.33
2023-04-29T12:32:37.640Z,24.00
2023-04-29T12:35:04.859Z,24.63
2023-04-29T12:37:31.923Z,23.80
2023-04-29T12:39:58.829Z,23.35
2023-04-29T12:42:33.338Z,22.20
2023-04-29T12:45:00.406Z,21.30
2023-04-29T12:47:34.079Z,19.40
2023-04-29T12:50:01.388Z,19.10
2023-04-29T12:52:28.288Z,21.15
2023-04-29T12:55:17.352Z,19.42
2023-04-29T12:57:44.306Z,20.95
2023-04-29T13:00:11.986Z,20.52
2023-04-29T13:02:39.111Z,18.33
2023-04-29T13:05:06.155Z,20.77
2023-04-29T13:07:33.515Z,22.17
2023-04-29T13:10:00.797Z,25.30
2023-04-29T13:12:27.877Z,29.05
2023-04-29T13:14:58.423Z,29.60
2023-04-29T13:17:26.721Z,29.92
2023-04-29T13:19:53.876Z,29.35
2023-04-29T13:22:21.971Z,29.75
2023-04-29T13:24:49.577Z,30.83
2023-04-29T13:27:16.706Z,29.20
2023-04-29T13:29:43.835Z,32.17
2023-04-29T13:32:10.807Z,30.27
2023-04-29T13:34:37.841Z,31.98
2023-04-29T13:37:05.173Z,30.35
2023-04-29T13:39:32.304Z,32.10
2023-04-29T13:41:59.743Z,30.77
2023-04-29T13:44:35.913Z,32.38
2023-04-29T13:47:13.694Z,30.88
2023-04-29T13:50:16.568Z,32.35
2023-04-29T13:55:49.486Z,32.03
2023-04-29T14:00:47.198Z,33.60
2023-04-29T14:03:08.858Z,34.72
2023-04-29T14:05:36.416Z,31.23
2023-04-29T14:08:03.661Z,29.15
2023-04-29T14:10:31.305Z,34.22
2023-04-29T14:12:58.604Z,31.63
2023-04-29T14:15:25.628Z,34.30
2023-04-29T14:20:34.152Z,39.80
2023-04-29T14:23:01.271Z,45.75
2023-04-29T14:25:29.661Z,45.97
2023-04-29T14:27:57.701Z,45.80
2023-04-29T14:30:26.420Z,47.25
2023-04-29T14:32:53.326Z,48.05
2023-04-29T14:35:20.598Z,50.33
2023-04-29T14:37:47.581Z,50.78
2023-04-29T14:40:14.494Z,49.33
2023-04-29T14:42:42.442Z,49.40
2023-04-29T14:45:10.061Z,52.60
2023-04-29T14:47:37.229Z,52.33
2023-04-29T14:50:12.274Z,52.70
2023-04-29T14:52:40.569Z,48.78
2023-04-29T14:55:09.219Z,47.30
2023-04-29T14:57:36.265Z,50.10
2023-04-29T15:00:03.955Z,49.50
2023-04-29T15:02:31.203Z,49.88
2023-04-29T15:04:58.802Z,47.80
2023-04-29T15:07:26.097Z,45.45
2023-04-29T15:09:53.123Z,45.35
2023-04-29T15:12:22.901Z,45.72
2023-04-29T15:14:50.827Z,45.25
2023-04-29T15:17:17.862Z,45.30
2023-04-29T15:19:45.407Z,44.08
2023-04-29T15:22:13.150Z,45.35
2023-04-29T15:24:40.480Z,46.17
2023-04-29T15:27:07.591Z,44.30
2023-04-29T15:29:37.365Z,44.55
2023-04-29T15:32:04.550Z,44.13
2023-04-29T15:34:32.159Z,43.58
2023-04-29T15:37:00.447Z,46.22
2023-04-29T15:39:28.854Z,45.20
2023-04-29T15:41:56.035Z,42.55
2023-04-29T15:44:22.950Z,40.67
2023-04-29T15:46:50.843Z,41.67
2023-04-29T15:49:18.474Z,43.08
2023-04-29T15:51:46.659Z,44.47
2023-04-29T15:54:13.709Z,45.88
2023-04-29T15:56:41.364Z,44.05
2023-04-29T15:59:08.585Z,42.08
2023-04-29T16:01:37.360Z,42.90
2023-04-29T16:04:05.108Z,41.75
2023-04-29T16:06:33.276Z,40.55
2023-04-29T16:09:02.134Z,40.78
2023-04-29T16:11:29.356Z,42.25
2023-04-29T16:13:56.533Z,41.00
2023-04-29T16:16:25.407Z,40.38
2023-04-29T16:18:56.067Z,39.50
2023-04-29T16:21:24.627Z,39.33
2023-04-29T16:23:51.915Z,43.20
2023-04-29T16:26:19.440Z,38.85
2023-04-29T16:28:46.596Z,38.08
2023-04-29T16:31:13.667Z,38.33
2023-04-29T16:33:40.938Z,40.28
2023-04-29T16:36:08.029Z,43.33
2023-04-29T16:38:35.076Z,38.75
2023-04-29T16:41:02.477Z,39.67
2023-04-29T16:43:29.411Z,41.20
2023-04-29T16:45:56.454Z,40.47
2023-04-29T16:48:23.490Z,40.83
2023-04-29T16:50:51.323Z,41.85
2023-04-29T16:53:18.339Z,40.30
2023-04-29T16:55:49.748Z,42.60
2023-04-29T16:58:17.435Z,41.83
2023-04-29T17:00:44.491Z,41.10
2023-04-29T17:03:12.086Z,42.88
2023-04-29T17:05:39.609Z,44.33
2023-04-29T17:10:47.368Z,42.72
2023-04-29T17:13:14.336Z,40.85
2023-04-29T17:15:41.413Z,45.08
2023-04-29T17:18:09.086Z,43.13
2023-04-29T17:20:36.551Z,42.50
2023-04-29T17:23:03.761Z,42.95
2023-04-29T17:25:30.985Z,39.20
2023-04-29T17:27:57.963Z,40.28
2023-04-29T17:30:25.823Z,41.15
2023-04-29T17:32:55.147Z,40.80
2023-04-29T17:35:22.205Z,41.45
2023-04-29T17:37:49.356Z,40.08
2023-04-29T17:40:17.821Z,42.95
2023-04-29T17:42:44.940Z,38.80
2023-04-29T17:45:12.714Z,42.03
2023-04-29T17:47:39.936Z,42.97
2023-04-29T17:50:07.651Z,39.85
2023-04-29T17:52:36.393Z,42.75
2023-04-29T17:55:03.540Z,40.97
2023-04-29T17:57:34.953Z,40.53
2023-04-29T18:00:01.924Z,39.90
2023-04-29T18:02:28.882Z,42.53
2023-04-29T18:04:56.174Z,42.45
2023-04-29T18:07:23.389Z,43.83
2023-04-29T18:09:50.391Z,41.70
2023-04-29T18:12:17.316Z,40.30
2023-04-29T18:14:51.439Z,41.22
2023-04-29T18:22:28.848Z,42.40
2023-04-29T18:24:57.156Z,41.38
2023-04-29T18:27:29.273Z,41.42
2023-04-29T18:29:57.926Z,39.83
2023-04-29T18:32:25.605Z,43.67
2023-04-29T18:34:52.651Z,43.17
2023-04-29T18:40:01.204Z,42.78
2023-04-29T18:42:29.124Z,47.97
2023-04-29T18:44:56.279Z,46.97
2023-04-29T18:50:08.665Z,45.72
2023-04-29T18:52:37.220Z,43.88
2023-04-29T18:55:13.900Z,43.90
2023-04-29T18:57:41.074Z,43.63
2023-04-29T19:00:08.965Z,41.58
2023-04-29T19:02:44.951Z,41.80
2023-04-29T19:05:13.166Z,40.75
2023-04-29T19:10:21.370Z,43.22
2023-04-29T19:12:48.602Z,44.53
2023-04-29T19:15:17.411Z,50.08
2023-04-29T19:17:44.866Z,47.90
2023-04-29T19:20:12.202Z,44.08
2023-04-29T19:22:39.083Z,41.88
2023-04-29T19:25:08.095Z,40.90
2023-04-29T19:27:34.976Z,41.35
2023-04-29T19:30:02.036Z,38.33
2023-04-29T19:32:30.278Z,41.63
2023-04-29T19:34:57.318Z,42.72
2023-04-29T19:37:24.338Z,42.17
2023-04-29T19:39:51.415Z,42.42
2023-04-29T19:42:18.446Z,42.53
2023-04-29T19:44:45.752Z,41.92
2023-04-29T19:47:14.382Z,42.85
2023-04-29T19:49:41.310Z,42.78
2023-04-29T19:52:08.557Z,41.90
2023-04-29T19:54:35.883Z,40.88
2023-04-29T19:57:03.547Z,40.72
2023-04-29T19:59:33.900Z,40.38
2023-04-29T20:02:00.819Z,39.03
2023-04-29T20:04:28.018Z,37.10
2023-04-29T20:06:55.906Z,38.17
2023-04-29T20:09:23.702Z,38.63
2023-04-29T20:11:50.632Z,39.80
2023-04-29T20:14:18.106Z,41.00
2023-04-29T20:16:45.069Z,36.67
2023-04-29T20:19:12.403Z,38.63
2023-04-29T20:21:40.522Z,38.05
2023-04-29T20:24:08.407Z,38.70
2023-04-29T20:26:35.584Z,38.08
2023-04-29T20:29:02.534Z,36.75
2023-04-29T20:31:29.900Z,38.20
2023-04-29T20:33:57.828Z,36.40
2023-04-29T20:36:25.029Z,37.40
2023-04-29T20:38:52.579Z,35.58
2023-04-29T20:41:21.355Z,35.65
2023-04-29T20:43:50.152Z,35.10
2023-04-29T20:46:26.581Z,34.28
2023-04-29T20:49:00.745Z,36.95
2023-04-29T20:54:10.082Z,35.38
2023-04-29T20:59:05.455Z,37.35
2023-04-29T21:01:32.873Z,39.45
2023-04-29T21:04:07.377Z,38.03
2023-04-29T21:06:38.101Z,38.05
2023-04-29T21:09:05.683Z,39.65
2023-04-29T21:11:36.522Z,42.70
2023-04-29T21:16:45.787Z,38.22
2023-04-29T21:19:17.525Z,38.88
2023-04-29T21:21:47.955Z,38.13
2023-04-29T21:24:16.593Z,38.85
2023-04-29T21:29:27.066Z,37.97
2023-04-29T21:31:55.702Z,38.10
2023-04-29T21:37:04.462Z,42.28
2023-04-29T21:42:13.898Z,45.20
2023-04-29T21:44:41.258Z,43.85
2023-04-29T21:47:08.437Z,40.78
2023-04-29T21:52:18.728Z,38.58
2023-04-29T21:54:49.432Z,37.90
2023-04-29T21:57:17.834Z,38.28
2023-04-29T21:59:53.525Z,39.22
2023-04-29T22:02:25.645Z,37.40
2023-04-29T22:04:53.749Z,35.75
2023-04-29T22:07:23.896Z,35.47
2023-04-29T22:09:54.943Z,34.42
2023-04-29T22:12:22.969Z,36.22
2023-04-29T22:14:50.340Z,37.50
2023-04-29T22:17:18.117Z,33.50
2023-04-29T22:19:45.227Z,37.40
2023-04-29T22:22:20.021Z,37.08
2023-04-29T22:24:47.834Z,35.95
2023-04-29T22:27:23.859Z,39.08
2023-04-29T22:29:52.139Z,38.92
2023-04-29T22:32:19.601Z,41.90
2023-04-29T22:34:46.573Z,39.53
2023-04-29T22:37:13.534Z,41.92
2023-04-29T22:39:44.560Z,41.10
2023-04-29T22:42:11.571Z,40.88
2023-04-29T22:44:38.565Z,40.83
2023-04-29T22:47:05.508Z,37.20
2023-04-29T22:49:33.252Z,36.55
2023-04-29T22:52:00.308Z,38.85
2023-04-29T22:54:28.700Z,38.25
2023-04-29T22:57:02.824Z,38.25
2023-04-29T23:01:57.605Z,39.13
2023-04-29T23:04:24.902Z,37.55
2023-04-29T23:06:53.167Z,37.55
2023-04-29T23:09:20.078Z,38.28
2023-04-29T23:11:47.085Z,38.85
2023-04-29T23:14:20.824Z,38.08
2023-04-29T23:16:47.914Z,37.70
2023-04-29T23:19:15.101Z,35.50
2023-04-29T23:21:42.331Z,37.25
2023-04-29T23:24:09.247Z,37.20
2023-04-29T23:26:36.221Z,37.92
2023-04-29T23:29:06.136Z,37.53
2023-04-29T23:31:33.236Z,36.42
2023-04-29T23:34:00.190Z,38.20
2023-04-29T23:36:28.993Z,35.10
2023-04-29T23:38:56.001Z,32.92
2023-04-29T23:41:23.283Z,35.58
2023-04-29T23:43:50.264Z,34.75
2023-04-29T23:46:17.239Z,34.85
2023-04-29T23:48:44.587Z,36.50
2023-04-29T23:54:00.912Z,38.53
2023-04-29T23:56:29.231Z,39.05
2023-04-29T23:58:56.140Z,37.38
